CheckWX is a tool to help pilots better visualize weather data.  It is not intended as a substitute for an official pre-flight weather briefing.

00:26:27 UTC

M40 METAR
Monroe County Airport
Aberdeen/Amory, Mississippi, USA
Current

11 mins ago

KM40 210015Z AUTO 28005KT 10SM CLR 16/06 A2995 RMK AO2
Observed
Apr-21 @ 00:15 UTC
Wind
  • 280° at 5 KTS
Visibility
10 SM
Flight Rules
VFR
Cloud Levels
  • Clear skies
Temperature
16°C / 61°F
Dewpoint
C / 43°F
Humidity
52%
Altimeter
29.95" Hg
Pressure
1014.22 hPa
Previous

31 mins ago

KM40 202355Z AUTO 28004G10KT 10SM CLR 18/05 A2994 RMK AO2
Observed
Apr-20 @ 23:55 UTC
Wind
  • 280° at 4 KTS
  • Gusting to 10 KTS
Visibility
10 SM
Flight Rules
VFR
Cloud Levels
  • Clear skies
Temperature
18°C / 64°F
Dewpoint
C / 41°F
Humidity
43%
Altimeter
29.94" Hg
Pressure
1013.92 hPa
Previous

51 mins ago

KM40 202335Z AUTO 31007G15KT 10SM CLR 18/04 A2994 RMK AO2
Observed
Apr-20 @ 23:35 UTC
Wind
  • 310° at 7 KTS
  • Gusting to 15 KTS
Visibility
10 SM
Flight Rules
VFR
Cloud Levels
  • Clear skies
Temperature
18°C / 64°F
Dewpoint
C / 39°F
Humidity
40%
Altimeter
29.94" Hg
Pressure
1013.92 hPa